sensor_id;sensor_type;location;lat;lon;timestamp;P1;durP1;ratioP1;P2;durP2;ratioP2
2039;SDS011;1025;42.686;23.350;2023-04-22T00:00:38;14.00;;;10.00;;
2039;SDS011;1025;42.686;23.350;2023-04-22T00:03:05;10.77;;;9.87;;
2039;SDS011;1025;42.686;23.350;2023-04-22T00:05:32;10.27;;;9.37;;
2039;SDS011;1025;42.686;23.350;2023-04-22T00:07:59;13.23;;;11.20;;
2039;SDS011;1025;42.686;23.350;2023-04-22T00:10:27;11.97;;;10.80;;
2039;SDS011;1025;42.686;23.350;2023-04-22T00:12:54;13.13;;;10.73;;
2039;SDS011;1025;42.686;23.350;2023-04-22T00:15:21;10.40;;;9.43;;
2039;SDS011;1025;42.686;23.350;2023-04-22T00:17:51;11.73;;;10.47;;
2039;SDS011;1025;42.686;23.350;2023-04-22T00:20:56;15.53;;;11.17;;
2039;SDS011;1025;42.686;23.350;2023-04-22T00:24:22;11.10;;;9.57;;
2039;SDS011;1025;42.686;23.350;2023-04-22T00:27:42;11.80;;;10.60;;
2039;SDS011;1025;42.686;23.350;2023-04-22T00:30:54;11.40;;;9.70;;
2039;SDS011;1025;42.686;23.350;2023-04-22T00:33:48;11.67;;;10.57;;
2039;SDS011;1025;42.686;23.350;2023-04-22T00:36:26;11.80;;;9.30;;
2039;SDS011;1025;42.686;23.350;2023-04-22T00:39:44;10.87;;;9.90;;
2039;SDS011;1025;42.686;23.350;2023-04-22T00:43:08;12.27;;;11.07;;
2039;SDS011;1025;42.686;23.350;2023-04-22T00:46:35;14.10;;;12.67;;
2039;SDS011;1025;42.686;23.350;2023-04-22T00:50:01;10.10;;;9.20;;
2039;SDS011;1025;42.686;23.350;2023-04-22T00:53:26;13.10;;;10.60;;
2039;SDS011;1025;42.686;23.350;2023-04-22T00:56:42;16.23;;;12.70;;
2039;SDS011;1025;42.686;23.350;2023-04-22T00:59:24;14.37;;;12.97;;
2039;SDS011;1025;42.686;23.350;2023-04-22T01:02:51;15.50;;;13.97;;
2039;SDS011;1025;42.686;23.350;2023-04-22T01:06:17;15.73;;;14.07;;
2039;SDS011;1025;42.686;23.350;2023-04-22T01:09:26;18.57;;;16.63;;
2039;SDS011;1025;42.686;23.350;2023-04-22T01:12:52;15.77;;;14.20;;
2039;SDS011;1025;42.686;23.350;2023-04-22T01:16:18;18.47;;;14.90;;
2039;SDS011;1025;42.686;23.350;2023-04-22T01:19:46;19.10;;;16.03;;
2039;SDS011;1025;42.686;23.350;2023-04-22T01:23:14;17.47;;;15.70;;
2039;SDS011;1025;42.686;23.350;2023-04-22T01:26:41;20.67;;;16.83;;
2039;SDS011;1025;42.686;23.350;2023-04-22T01:30:06;20.10;;;16.27;;
2039;SDS011;1025;42.686;23.350;2023-04-22T01:33:30;16.80;;;14.73;;
2039;SDS011;1025;42.686;23.350;2023-04-22T01:36:55;16.13;;;14.73;;
2039;SDS011;1025;42.686;23.350;2023-04-22T01:40:19;22.73;;;15.00;;
2039;SDS011;1025;42.686;23.350;2023-04-22T01:43:44;19.63;;;16.77;;
2039;SDS011;1025;42.686;23.350;2023-04-22T01:47:10;17.70;;;15.83;;
2039;SDS011;1025;42.686;23.350;2023-04-22T01:50:35;17.70;;;15.90;;
2039;SDS011;1025;42.686;23.350;2023-04-22T01:54:00;17.30;;;15.50;;
2039;SDS011;1025;42.686;23.350;2023-04-22T01:57:27;17.53;;;15.23;;
2039;SDS011;1025;42.686;23.350;2023-04-22T02:00:54;17.37;;;15.63;;
2039;SDS011;1025;42.686;23.350;2023-04-22T02:04:19;18.27;;;16.17;;
2039;SDS011;1025;42.686;23.350;2023-04-22T02:07:31;17.43;;;15.20;;
2039;SDS011;1025;42.686;23.350;2023-04-22T02:10:56;17.90;;;15.43;;
2039;SDS011;1025;42.686;23.350;2023-04-22T02:14:22;17.13;;;15.33;;
2039;SDS011;1025;42.686;23.350;2023-04-22T02:17:47;18.80;;;16.80;;
2039;SDS011;1025;42.686;23.350;2023-04-22T02:21:13;51.70;;;26.63;;
2039;SDS011;1025;42.686;23.350;2023-04-22T02:24:38;16.17;;;14.43;;
2039;SDS011;1025;42.686;23.350;2023-04-22T02:28:03;17.87;;;15.87;;
2039;SDS011;1025;42.686;23.350;2023-04-22T02:31:29;22.60;;;16.07;;
2039;SDS011;1025;42.686;23.350;2023-04-22T02:34:54;20.23;;;16.17;;
2039;SDS011;1025;42.686;23.350;2023-04-22T02:38:19;16.10;;;14.50;;
2039;SDS011;1025;42.686;23.350;2023-04-22T02:41:44;21.80;;;15.80;;
2039;SDS011;1025;42.686;23.350;2023-04-22T02:45:10;23.00;;;17.10;;
2039;SDS011;1025;42.686;23.350;2023-04-22T02:48:38;17.10;;;15.30;;
2039;SDS011;1025;42.686;23.350;2023-04-22T02:52:03;27.67;;;15.70;;
2039;SDS011;1025;42.686;23.350;2023-04-22T02:55:29;16.63;;;14.87;;
2039;SDS011;1025;42.686;23.350;2023-04-22T02:58:55;16.90;;;15.07;;
2039;SDS011;1025;42.686;23.350;2023-04-22T03:02:21;19.57;;;17.40;;
2039;SDS011;1025;42.686;23.350;2023-04-22T03:05:47;19.13;;;15.20;;
2039;SDS011;1025;42.686;23.350;2023-04-22T03:09:13;16.73;;;15.20;;
2039;SDS011;1025;42.686;23.350;2023-04-22T03:12:34;16.97;;;15.07;;
2039;SDS011;1025;42.686;23.350;2023-04-22T03:15:08;19.37;;;16.97;;
2039;SDS011;1025;42.686;23.350;2023-04-22T03:18:34;19.90;;;17.00;;
2039;SDS011;1025;42.686;23.350;2023-04-22T03:21:59;21.20;;;15.90;;
2039;SDS011;1025;42.686;23.350;2023-04-22T03:25:24;17.23;;;15.30;;
2039;SDS011;1025;42.686;23.350;2023-04-22T03:28:50;18.60;;;15.60;;
2039;SDS011;1025;42.686;23.350;2023-04-22T03:32:02;24.07;;;16.73;;
2039;SDS011;1025;42.686;23.350;2023-04-22T03:34:29;26.93;;;18.03;;
2039;SDS011;1025;42.686;23.350;2023-04-22T03:37:55;21.07;;;16.30;;
2039;SDS011;1025;42.686;23.350;2023-04-22T03:40:27;25.67;;;16.30;;
2039;SDS011;1025;42.686;23.350;2023-04-22T03:42:54;23.13;;;17.03;;
2039;SDS011;1025;42.686;23.350;2023-04-22T03:45:24;22.70;;;17.47;;
2039;SDS011;1025;42.686;23.350;2023-04-22T03:48:43;33.63;;;16.93;;
2039;SDS011;1025;42.686;23.350;2023-04-22T03:52:09;33.10;;;18.10;;
2039;SDS011;1025;42.686;23.350;2023-04-22T03:55:36;22.63;;;17.67;;
2039;SDS011;1025;42.686;23.350;2023-04-22T03:59:01;33.60;;;20.13;;
2039;SDS011;1025;42.686;23.350;2023-04-22T04:02:26;31.97;;;19.33;;
2039;SDS011;1025;42.686;23.350;2023-04-22T04:05:52;29.50;;;16.87;;
2039;SDS011;1025;42.686;23.350;2023-04-22T04:09:19;25.97;;;20.10;;
2039;SDS011;1025;42.686;23.350;2023-04-22T04:12:44;27.93;;;17.53;;
2039;SDS011;1025;42.686;23.350;2023-04-22T04:15:30;27.40;;;18.20;;
2039;SDS011;1025;42.686;23.350;2023-04-22T04:18:10;29.40;;;18.60;;
2039;SDS011;1025;42.686;23.350;2023-04-22T04:21:35;19.57;;;16.70;;
2039;SDS011;1025;42.686;23.350;2023-04-22T04:24:56;29.90;;;17.43;;
2039;SDS011;1025;42.686;23.350;2023-04-22T04:27:55;18.67;;;15.70;;
2039;SDS011;1025;42.686;23.350;2023-04-22T04:31:20;22.57;;;17.40;;
2039;SDS011;1025;42.686;23.350;2023-04-22T04:34:46;27.13;;;19.03;;
2039;SDS011;1025;42.686;23.350;2023-04-22T04:38:12;21.50;;;18.33;;
2039;SDS011;1025;42.686;23.350;2023-04-22T04:41:38;24.10;;;17.10;;
2039;SDS011;1025;42.686;23.350;2023-04-22T04:45:05;20.37;;;16.73;;
2039;SDS011;1025;42.686;23.350;2023-04-22T04:48:32;20.40;;;15.57;;
2039;SDS011;1025;42.686;23.350;2023-04-22T04:51:28;19.80;;;15.00;;
2039;SDS011;1025;42.686;23.350;2023-04-22T04:54:04;33.63;;;16.30;;
2039;SDS011;1025;42.686;23.350;2023-04-22T04:57:03;23.03;;;16.93;;
2039;SDS011;1025;42.686;23.350;2023-04-22T05:00:28;16.10;;;14.27;;
2039;SDS011;1025;42.686;23.350;2023-04-22T05:03:19;14.20;;;12.10;;
2039;SDS011;1025;42.686;23.350;2023-04-22T05:06:44;15.13;;;11.10;;
2039;SDS011;1025;42.686;23.350;2023-04-22T05:10:08;12.27;;;10.60;;
2039;SDS011;1025;42.686;23.350;2023-04-22T05:13:33;13.70;;;11.50;;
2039;SDS011;1025;42.686;23.350;2023-04-22T05:16:08;18.87;;;12.20;;
2039;SDS011;1025;42.686;23.350;2023-04-22T05:19:37;18.90;;;13.47;;
2039;SDS011;1025;42.686;23.350;2023-04-22T05:22:50;12.17;;;10.90;;
2039;SDS011;1025;42.686;23.350;2023-04-22T05:26:15;17.93;;;12.50;;
2039;SDS011;1025;42.686;23.350;2023-04-22T05:28:44;16.43;;;11.77;;
2039;SDS011;1025;42.686;23.350;2023-04-22T05:32:09;13.80;;;11.80;;
2039;SDS011;1025;42.686;23.350;2023-04-22T05:35:34;13.53;;;12.23;;
2039;SDS011;1025;42.686;23.350;2023-04-22T05:38:31;17.50;;;13.10;;
2039;SDS011;1025;42.686;23.350;2023-04-22T05:41:55;13.10;;;11.87;;
2039;SDS011;1025;42.686;23.350;2023-04-22T05:45:16;18.50;;;12.67;;
2039;SDS011;1025;42.686;23.350;2023-04-22T05:48:32;11.70;;;10.90;;
2039;SDS011;1025;42.686;23.350;2023-04-22T05:51:55;19.03;;;12.10;;
2039;SDS011;1025;42.686;23.350;2023-04-22T05:54:24;18.73;;;11.70;;
2039;SDS011;1025;42.686;23.350;2023-04-22T05:57:38;15.27;;;13.33;;
2039;SDS011;1025;42.686;23.350;2023-04-22T06:01:04;17.67;;;12.80;;
2039;SDS011;1025;42.686;23.350;2023-04-22T06:04:30;15.50;;;11.80;;
2039;SDS011;1025;42.686;23.350;2023-04-22T06:07:54;12.67;;;11.43;;
2039;SDS011;1025;42.686;23.350;2023-04-22T06:11:19;13.33;;;11.63;;
2039;SDS011;1025;42.686;23.350;2023-04-22T06:14:44;13.70;;;11.80;;
2039;SDS011;1025;42.686;23.350;2023-04-22T06:18:08;15.13;;;10.53;;
2039;SDS011;1025;42.686;23.350;2023-04-22T06:21:32;12.60;;;9.33;;
2039;SDS011;1025;42.686;23.350;2023-04-22T06:24:58;17.30;;;11.33;;
2039;SDS011;1025;42.686;23.350;2023-04-22T06:27:31;11.70;;;10.00;;
2039;SDS011;1025;42.686;23.350;2023-04-22T06:30:53;17.80;;;14.20;;
2039;SDS011;1025;42.686;23.350;2023-04-22T06:34:07;17.63;;;12.10;;
2039;SDS011;1025;42.686;23.350;2023-04-22T06:37:31;13.00;;;10.70;;
2039;SDS011;1025;42.686;23.350;2023-04-22T06:40:06;26.97;;;13.70;;
2039;SDS011;1025;42.686;23.350;2023-04-22T06:43:31;14.07;;;9.73;;
2039;SDS011;1025;42.686;23.350;2023-04-22T06:46:49;11.77;;;10.60;;
2039;SDS011;1025;42.686;23.350;2023-04-22T06:50:16;10.43;;;9.50;;
2039;SDS011;1025;42.686;23.350;2023-04-22T06:53:40;16.20;;;11.67;;
2039;SDS011;1025;42.686;23.350;2023-04-22T06:57:04;11.60;;;10.40;;
2039;SDS011;1025;42.686;23.350;2023-04-22T07:00:30;12.23;;;9.83;;
2039;SDS011;1025;42.686;23.350;2023-04-22T07:03:54;11.43;;;9.43;;
2039;SDS011;1025;42.686;23.350;2023-04-22T07:07:21;14.47;;;10.67;;
2039;SDS011;1025;42.686;23.350;2023-04-22T07:10:16;9.20;;;8.40;;
2039;SDS011;1025;42.686;23.350;2023-04-22T07:13:14;13.07;;;8.87;;
2039;SDS011;1025;42.686;23.350;2023-04-22T07:16:39;14.13;;;10.20;;
2039;SDS011;1025;42.686;23.350;2023-04-22T07:20:04;10.63;;;8.60;;
2039;SDS011;1025;42.686;23.350;2023-04-22T07:23:16;9.13;;;8.23;;
2039;SDS011;1025;42.686;23.350;2023-04-22T07:26:14;8.33;;;7.53;;
2039;SDS011;1025;42.686;23.350;2023-04-22T07:29:39;11.50;;;8.43;;
2039;SDS011;1025;42.686;23.350;2023-04-22T07:33:04;9.07;;;7.40;;
2039;SDS011;1025;42.686;23.350;2023-04-22T07:36:29;13.93;;;7.17;;
2039;SDS011;1025;42.686;23.350;2023-04-22T07:39:54;7.53;;;6.83;;
2039;SDS011;1025;42.686;23.350;2023-04-22T07:43:14;10.87;;;7.17;;
2039;SDS011;1025;42.686;23.350;2023-04-22T07:46:31;8.77;;;7.93;;
2039;SDS011;1025;42.686;23.350;2023-04-22T07:49:56;10.60;;;6.90;;
2039;SDS011;1025;42.686;23.350;2023-04-22T07:53:21;8.23;;;7.53;;
2039;SDS011;1025;42.686;23.350;2023-04-22T07:56:47;6.73;;;6.20;;
2039;SDS011;1025;42.686;23.350;2023-04-22T08:00:13;8.57;;;7.87;;
2039;SDS011;1025;42.686;23.350;2023-04-22T08:03:37;8.07;;;5.30;;
2039;SDS011;1025;42.686;23.350;2023-04-22T08:07:02;7.80;;;6.13;;
2039;SDS011;1025;42.686;23.350;2023-04-22T08:10:27;13.93;;;6.87;;
2039;SDS011;1025;42.686;23.350;2023-04-22T08:13:52;10.60;;;5.73;;
2039;SDS011;1025;42.686;23.350;2023-04-22T08:17:18;7.10;;;5.23;;
2039;SDS011;1025;42.686;23.350;2023-04-22T08:20:43;8.37;;;6.10;;
2039;SDS011;1025;42.686;23.350;2023-04-22T08:24:06;7.07;;;5.50;;
2039;SDS011;1025;42.686;23.350;2023-04-22T08:27:32;8.67;;;5.27;;
2039;SDS011;1025;42.686;23.350;2023-04-22T08:30:59;5.30;;;4.10;;
2039;SDS011;1025;42.686;23.350;2023-04-22T08:34:25;6.90;;;5.60;;
2039;SDS011;1025;42.686;23.350;2023-04-22T08:37:50;10.90;;;5.93;;
2039;SDS011;1025;42.686;23.350;2023-04-22T08:41:15;6.07;;;5.30;;
2039;SDS011;1025;42.686;23.350;2023-04-22T08:44:40;9.50;;;6.00;;
2039;SDS011;1025;42.686;23.350;2023-04-22T08:48:07;10.43;;;5.30;;
2039;SDS011;1025;42.686;23.350;2023-04-22T08:51:29;6.47;;;5.63;;
2039;SDS011;1025;42.686;23.350;2023-04-22T08:53:57;8.80;;;7.90;;
2039;SDS011;1025;42.686;23.350;2023-04-22T08:57:22;7.03;;;5.83;;
2039;SDS011;1025;42.686;23.350;2023-04-22T09:00:48;6.73;;;4.47;;
2039;SDS011;1025;42.686;23.350;2023-04-22T09:04:16;5.60;;;5.10;;
2039;SDS011;1025;42.686;23.350;2023-04-22T09:07:43;7.97;;;5.20;;
2039;SDS011;1025;42.686;23.350;2023-04-22T09:11:08;12.50;;;6.00;;
2039;SDS011;1025;42.686;23.350;2023-04-22T09:14:34;8.97;;;5.27;;
2039;SDS011;1025;42.686;23.350;2023-04-22T09:18:01;6.70;;;4.57;;
2039;SDS011;1025;42.686;23.350;2023-04-22T09:20:29;10.40;;;5.20;;
2039;SDS011;1025;42.686;23.350;2023-04-22T09:23:32;8.70;;;6.10;;
2039;SDS011;1025;42.686;23.350;2023-04-22T09:26:56;9.10;;;6.07;;
2039;SDS011;1025;42.686;23.350;2023-04-22T09:30:22;6.33;;;5.73;;
2039;SDS011;1025;42.686;23.350;2023-04-22T09:33:48;7.27;;;4.40;;
2039;SDS011;1025;42.686;23.350;2023-04-22T09:37:18;6.30;;;4.60;;
2039;SDS011;1025;42.686;23.350;2023-04-22T09:40:42;7.07;;;6.20;;
2039;SDS011;1025;42.686;23.350;2023-04-22T09:44:08;8.83;;;4.67;;
2039;SDS011;1025;42.686;23.350;2023-04-22T09:46:44;6.60;;;5.93;;
2039;SDS011;1025;42.686;23.350;2023-04-22T09:49:39;5.13;;;4.70;;
2039;SDS011;1025;42.686;23.350;2023-04-22T09:53:10;9.93;;;5.80;;
2039;SDS011;1025;42.686;23.350;2023-04-22T09:56:44;6.00;;;4.80;;
2039;SDS011;1025;42.686;23.350;2023-04-22T09:59:23;3.07;;;2.80;;
2039;SDS011;1025;42.686;23.350;2023-04-22T10:02:41;3.43;;;2.50;;
2039;SDS011;1025;42.686;23.350;2023-04-22T10:06:05;4.20;;;2.80;;
2039;SDS011;1025;42.686;23.350;2023-04-22T10:09:29;6.60;;;2.43;;
2039;SDS011;1025;42.686;23.350;2023-04-22T10:12:12;2.67;;;2.47;;
2039;SDS011;1025;42.686;23.350;2023-04-22T10:15:37;6.50;;;3.87;;
2039;SDS011;1025;42.686;23.350;2023-04-22T10:18:48;5.30;;;3.40;;
2039;SDS011;1025;42.686;23.350;2023-04-22T10:22:14;2.30;;;1.90;;
2039;SDS011;1025;42.686;23.350;2023-04-22T10:24:58;6.97;;;2.43;;
2039;SDS011;1025;42.686;23.350;2023-04-22T10:28:21;4.73;;;1.77;;
2039;SDS011;1025;42.686;23.350;2023-04-22T10:31:31;2.53;;;1.40;;
2039;SDS011;1025;42.686;23.350;2023-04-22T10:34:48;2.10;;;1.90;;
2039;SDS011;1025;42.686;23.350;2023-04-22T10:38:29;2.60;;;1.40;;
2039;SDS011;1025;42.686;23.350;2023-04-22T10:42:03;1.77;;;1.67;;
2039;SDS011;1025;42.686;23.350;2023-04-22T10:45:29;1.50;;;1.40;;
2039;SDS011;1025;42.686;23.350;2023-04-22T10:49:23;2.30;;;2.10;;
2039;SDS011;1025;42.686;23.350;2023-04-22T10:52:51;4.90;;;2.93;;
2039;SDS011;1025;42.686;23.350;2023-04-22T10:56:16;2.70;;;2.00;;
2039;SDS011;1025;42.686;23.350;2023-04-22T10:59:47;2.70;;;2.50;;
2039;SDS011;1025;42.686;23.350;2023-04-22T11:02:25;5.57;;;3.00;;
2039;SDS011;1025;42.686;23.350;2023-04-22T11:05:32;2.53;;;2.33;;
2039;SDS011;1025;42.686;23.350;2023-04-22T11:08:43;5.87;;;4.47;;
2039;SDS011;1025;42.686;23.350;2023-04-22T11:15:54;4.90;;;2.17;;
2039;SDS011;1025;42.686;23.350;2023-04-22T11:19:18;3.13;;;2.70;;
2039;SDS011;1025;42.686;23.350;2023-04-22T11:22:45;2.20;;;2.00;;
2039;SDS011;1025;42.686;23.350;2023-04-22T11:26:16;3.17;;;2.30;;
2039;SDS011;1025;42.686;23.350;2023-04-22T11:29:42;2.60;;;2.40;;
2039;SDS011;1025;42.686;23.350;2023-04-22T11:33:08;2.00;;;1.90;;
2039;SDS011;1025;42.686;23.350;2023-04-22T11:36:34;1.30;;;1.20;;
2039;SDS011;1025;42.686;23.350;2023-04-22T11:40:06;3.20;;;1.83;;
2039;SDS011;1025;42.686;23.350;2023-04-22T11:43:31;8.23;;;2.70;;
2039;SDS011;1025;42.686;23.350;2023-04-22T11:46:57;2.77;;;2.57;;
2039;SDS011;1025;42.686;23.350;2023-04-22T11:50:21;4.80;;;2.47;;
2039;SDS011;1025;42.686;23.350;2023-04-22T11:53:48;2.03;;;1.83;;
2039;SDS011;1025;42.686;23.350;2023-04-22T11:56:40;12.47;;;11.33;;
2039;SDS011;1025;42.686;23.350;2023-04-22T12:00:02;2.80;;;2.60;;
2039;SDS011;1025;42.686;23.350;2023-04-22T12:03:29;2.10;;;2.00;;
2039;SDS011;1025;42.686;23.350;2023-04-22T12:06:54;3.60;;;2.93;;
2039;SDS011;1025;42.686;23.350;2023-04-22T12:10:19;3.23;;;2.80;;
2039;SDS011;1025;42.686;23.350;2023-04-22T12:12:57;2.80;;;2.60;;
2039;SDS011;1025;42.686;23.350;2023-04-22T12:16:38;3.23;;;2.07;;
2039;SDS011;1025;42.686;23.350;2023-04-22T12:20:05;1.80;;;1.70;;
2039;SDS011;1025;42.686;23.350;2023-04-22T12:23:39;2.47;;;2.27;;
2039;SDS011;1025;42.686;23.350;2023-04-22T12:26:07;2.60;;;2.10;;
2039;SDS011;1025;42.686;23.350;2023-04-22T12:29:32;3.87;;;2.30;;
2039;SDS011;1025;42.686;23.350;2023-04-22T12:32:57;2.40;;;2.20;;
2039;SDS011;1025;42.686;23.350;2023-04-22T12:35:33;6.10;;;4.60;;
2039;SDS011;1025;42.686;23.350;2023-04-22T12:38:58;3.83;;;3.13;;
2039;SDS011;1025;42.686;23.350;2023-04-22T12:42:18;3.70;;;2.97;;
2039;SDS011;1025;42.686;23.350;2023-04-22T12:45:44;3.67;;;3.37;;
2039;SDS011;1025;42.686;23.350;2023-04-22T12:49:06;3.70;;;2.77;;
2039;SDS011;1025;42.686;23.350;2023-04-22T12:52:34;7.20;;;3.43;;
2039;SDS011;1025;42.686;23.350;2023-04-22T12:55:37;4.00;;;3.70;;
2039;SDS011;1025;42.686;23.350;2023-04-22T12:59:02;2.57;;;2.37;;
2039;SDS011;1025;42.686;23.350;2023-04-22T13:02:25;1.90;;;1.80;;
2039;SDS011;1025;42.686;23.350;2023-04-22T13:05:49;2.50;;;2.30;;
2039;SDS011;1025;42.686;23.350;2023-04-22T13:09:21;4.17;;;2.90;;
2039;SDS011;1025;42.686;23.350;2023-04-22T13:12:47;2.90;;;2.70;;
2039;SDS011;1025;42.686;23.350;2023-04-22T13:16:12;2.03;;;1.93;;
2039;SDS011;1025;42.686;23.350;2023-04-22T13:19:38;1.87;;;1.77;;
2039;SDS011;1025;42.686;23.350;2023-04-22T13:22:57;4.50;;;2.23;;
2039;SDS011;1025;42.686;23.350;2023-04-22T13:26:24;5.43;;;3.07;;
2039;SDS011;1025;42.686;23.350;2023-04-22T13:29:50;2.27;;;2.17;;
2039;SDS011;1025;42.686;23.350;2023-04-22T13:33:15;3.90;;;2.03;;
2039;SDS011;1025;42.686;23.350;2023-04-22T13:36:40;13.20;;;3.03;;
2039;SDS011;1025;42.686;23.350;2023-04-22T13:40:02;2.33;;;2.17;;
2039;SDS011;1025;42.686;23.350;2023-04-22T13:43:28;2.93;;;2.50;;
2039;SDS011;1025;42.686;23.350;2023-04-22T13:46:54;2.80;;;2.23;;
2039;SDS011;1025;42.686;23.350;2023-04-22T13:50:19;2.57;;;2.30;;
2039;SDS011;1025;42.686;23.350;2023-04-22T13:53:44;3.20;;;3.00;;
2039;SDS011;1025;42.686;23.350;2023-04-22T13:57:10;2.57;;;2.37;;
2039;SDS011;1025;42.686;23.350;2023-04-22T14:00:37;4.17;;;2.27;;
2039;SDS011;1025;42.686;23.350;2023-04-22T14:04:03;2.07;;;1.90;;
2039;SDS011;1025;42.686;23.350;2023-04-22T14:07:26;2.13;;;2.03;;
2039;SDS011;1025;42.686;23.350;2023-04-22T14:10:30;2.63;;;2.42;;
2039;SDS011;1025;42.686;23.350;2023-04-22T14:13:06;6.37;;;3.00;;
2039;SDS011;1025;42.686;23.350;2023-04-22T14:16:30;3.13;;;2.70;;
2039;SDS011;1025;42.686;23.350;2023-04-22T14:19:54;6.97;;;5.53;;
2039;SDS011;1025;42.686;23.350;2023-04-22T14:23:20;2.17;;;2.07;;
2039;SDS011;1025;42.686;23.350;2023-04-22T14:26:46;2.10;;;1.83;;
2039;SDS011;1025;42.686;23.350;2023-04-22T14:29:32;3.50;;;3.20;;
2039;SDS011;1025;42.686;23.350;2023-04-22T14:32:59;8.60;;;3.30;;
2039;SDS011;1025;42.686;23.350;2023-04-22T14:36:24;6.83;;;2.33;;
2039;SDS011;1025;42.686;23.350;2023-04-22T14:39:49;2.53;;;2.33;;
2039;SDS011;1025;42.686;23.350;2023-04-22T14:43:15;2.53;;;2.33;;
2039;SDS011;1025;42.686;23.350;2023-04-22T14:46:41;2.87;;;2.53;;
2039;SDS011;1025;42.686;23.350;2023-04-22T14:50:08;2.63;;;2.43;;
2039;SDS011;1025;42.686;23.350;2023-04-22T14:52:45;3.97;;;3.20;;
2039;SDS011;1025;42.686;23.350;2023-04-22T14:56:11;4.00;;;2.40;;
2039;SDS011;1025;42.686;23.350;2023-04-22T14:59:36;7.30;;;3.00;;
2039;SDS011;1025;42.686;23.350;2023-04-22T15:03:01;4.00;;;2.93;;
2039;SDS011;1025;42.686;23.350;2023-04-22T15:06:28;4.83;;;3.10;;
2039;SDS011;1025;42.686;23.350;2023-04-22T15:09:54;3.60;;;3.30;;
2039;SDS011;1025;42.686;23.350;2023-04-22T15:13:19;3.17;;;2.90;;
2039;SDS011;1025;42.686;23.350;2023-04-22T15:16:45;6.80;;;6.20;;
2039;SDS011;1025;42.686;23.350;2023-04-22T15:19:54;7.73;;;3.67;;
2039;SDS011;1025;42.686;23.350;2023-04-22T15:23:19;3.13;;;2.90;;
2039;SDS011;1025;42.686;23.350;2023-04-22T15:25:54;3.83;;;3.43;;
2039;SDS011;1025;42.686;23.350;2023-04-22T15:29:19;2.83;;;2.63;;
2039;SDS011;1025;42.686;23.350;2023-04-22T15:32:44;2.73;;;2.53;;
2039;SDS011;1025;42.686;23.350;2023-04-22T15:36:09;3.20;;;3.00;;
2039;SDS011;1025;42.686;23.350;2023-04-22T15:39:36;4.57;;;3.27;;
2039;SDS011;1025;42.686;23.350;2023-04-22T15:43:01;5.53;;;2.97;;
2039;SDS011;1025;42.686;23.350;2023-04-22T15:46:27;2.80;;;2.53;;
2039;SDS011;1025;42.686;23.350;2023-04-22T15:48:57;3.20;;;2.90;;
2039;SDS011;1025;42.686;23.350;2023-04-22T15:51:24;6.77;;;6.10;;
2039;SDS011;1025;42.686;23.350;2023-04-22T15:54:51;4.47;;;2.90;;
2039;SDS011;1025;42.686;23.350;2023-04-22T15:58:16;3.40;;;2.50;;
2039;SDS011;1025;42.686;23.350;2023-04-22T16:01:42;3.13;;;2.83;;
2039;SDS011;1025;42.686;23.350;2023-04-22T16:05:08;4.40;;;2.70;;
2039;SDS011;1025;42.686;23.350;2023-04-22T16:08:35;6.30;;;2.70;;
2039;SDS011;1025;42.686;23.350;2023-04-22T16:12:02;3.67;;;3.23;;
2039;SDS011;1025;42.686;23.350;2023-04-22T16:15:27;8.30;;;2.30;;
2039;SDS011;1025;42.686;23.350;2023-04-22T16:18:52;3.50;;;2.70;;
2039;SDS011;1025;42.686;23.350;2023-04-22T16:22:18;2.90;;;2.37;;
2039;SDS011;1025;42.686;23.350;2023-04-22T16:25:43;4.33;;;2.87;;
2039;SDS011;1025;42.686;23.350;2023-04-22T16:29:10;6.17;;;4.20;;
2039;SDS011;1025;42.686;23.350;2023-04-22T16:32:36;2.80;;;2.60;;
2039;SDS011;1025;42.686;23.350;2023-04-22T16:36:02;4.63;;;2.40;;
2039;SDS011;1025;42.686;23.350;2023-04-22T16:39:28;3.03;;;2.83;;
2039;SDS011;1025;42.686;23.350;2023-04-22T16:42:53;5.00;;;3.20;;
2039;SDS011;1025;42.686;23.350;2023-04-22T16:46:20;3.33;;;2.83;;
2039;SDS011;1025;42.686;23.350;2023-04-22T16:49:46;3.57;;;3.03;;
2039;SDS011;1025;42.686;23.350;2023-04-22T16:53:11;6.70;;;2.97;;
2039;SDS011;1025;42.686;23.350;2023-04-22T16:56:36;5.33;;;3.40;;
2039;SDS011;1025;42.686;23.350;2023-04-22T17:00:02;7.73;;;3.77;;
2039;SDS011;1025;42.686;23.350;2023-04-22T17:03:29;4.20;;;3.90;;
2039;SDS011;1025;42.686;23.350;2023-04-22T17:06:54;4.57;;;4.17;;
2039;SDS011;1025;42.686;23.350;2023-04-22T17:10:20;3.77;;;3.47;;
2039;SDS011;1025;42.686;23.350;2023-04-22T17:13:46;3.77;;;3.33;;
2039;SDS011;1025;42.686;23.350;2023-04-22T17:17:11;3.70;;;3.40;;
2039;SDS011;1025;42.686;23.350;2023-04-22T17:20:38;3.27;;;2.97;;
2039;SDS011;1025;42.686;23.350;2023-04-22T17:24:03;4.40;;;4.00;;
2039;SDS011;1025;42.686;23.350;2023-04-22T17:27:29;3.10;;;2.90;;
2039;SDS011;1025;42.686;23.350;2023-04-22T17:30:55;5.83;;;3.13;;
2039;SDS011;1025;42.686;23.350;2023-04-22T17:34:20;3.10;;;2.90;;
2039;SDS011;1025;42.686;23.350;2023-04-22T17:37:47;4.50;;;4.10;;
2039;SDS011;1025;42.686;23.350;2023-04-22T17:41:12;3.87;;;3.60;;
2039;SDS011;1025;42.686;23.350;2023-04-22T17:44:38;4.40;;;3.67;;
2039;SDS011;1025;42.686;23.350;2023-04-22T17:48:03;3.60;;;3.30;;
2039;SDS011;1025;42.686;23.350;2023-04-22T17:51:28;6.17;;;3.57;;
2039;SDS011;1025;42.686;23.350;2023-04-22T17:54:55;4.57;;;4.27;;
2039;SDS011;1025;42.686;23.350;2023-04-22T17:58:20;3.37;;;3.17;;
2039;SDS011;1025;42.686;23.350;2023-04-22T18:01:46;4.20;;;3.90;;
2039;SDS011;1025;42.686;23.350;2023-04-22T18:05:11;3.93;;;3.60;;
2039;SDS011;1025;42.686;23.350;2023-04-22T18:08:36;5.40;;;3.80;;
2039;SDS011;1025;42.686;23.350;2023-04-22T18:12:03;4.93;;;4.53;;
2039;SDS011;1025;42.686;23.350;2023-04-22T18:15:29;4.17;;;3.67;;
2039;SDS011;1025;42.686;23.350;2023-04-22T18:18:54;4.93;;;4.50;;
2039;SDS011;1025;42.686;23.350;2023-04-22T18:22:20;5.57;;;4.20;;
2039;SDS011;1025;42.686;23.350;2023-04-22T18:25:45;5.40;;;4.90;;
2039;SDS011;1025;42.686;23.350;2023-04-22T18:29:12;8.47;;;5.33;;
2039;SDS011;1025;42.686;23.350;2023-04-22T18:32:38;5.17;;;4.77;;
2039;SDS011;1025;42.686;23.350;2023-04-22T18:36:03;5.93;;;4.73;;
2039;SDS011;1025;42.686;23.350;2023-04-22T18:39:29;5.77;;;5.27;;
2039;SDS011;1025;42.686;23.350;2023-04-22T18:42:54;5.50;;;5.00;;
2039;SDS011;1025;42.686;23.350;2023-04-22T18:46:21;6.60;;;5.20;;
2039;SDS011;1025;42.686;23.350;2023-04-22T18:49:46;4.63;;;4.33;;
2039;SDS011;1025;42.686;23.350;2023-04-22T18:53:07;4.80;;;4.47;;
2039;SDS011;1025;42.686;23.350;2023-04-22T18:56:33;5.40;;;4.10;;
2039;SDS011;1025;42.686;23.350;2023-04-22T18:59:58;5.50;;;5.03;;
2039;SDS011;1025;42.686;23.350;2023-04-22T19:03:25;5.50;;;5.00;;
2039;SDS011;1025;42.686;23.350;2023-04-22T19:06:51;4.00;;;3.60;;
2039;SDS011;1025;42.686;23.350;2023-04-22T19:10:17;7.10;;;3.60;;
2039;SDS011;1025;42.686;23.350;2023-04-22T19:13:42;3.80;;;3.50;;
2039;SDS011;1025;42.686;23.350;2023-04-22T19:17:08;4.40;;;4.10;;
2039;SDS011;1025;42.686;23.350;2023-04-22T19:20:34;8.63;;;4.30;;
2039;SDS011;1025;42.686;23.350;2023-04-22T19:24:00;4.70;;;4.30;;
2039;SDS011;1025;42.686;23.350;2023-04-22T19:27:30;4.77;;;4.37;;
2039;SDS011;1025;42.686;23.350;2023-04-22T19:30:55;4.10;;;3.90;;
2039;SDS011;1025;42.686;23.350;2023-04-22T19:34:22;5.20;;;4.70;;
2039;SDS011;1025;42.686;23.350;2023-04-22T19:37:50;5.23;;;4.03;;
2039;SDS011;1025;42.686;23.350;2023-04-22T19:41:15;4.27;;;3.43;;
2039;SDS011;1025;42.686;23.350;2023-04-22T19:44:39;4.53;;;3.30;;
2039;SDS011;1025;42.686;23.350;2023-04-22T19:48:05;4.63;;;3.57;;
2039;SDS011;1025;42.686;23.350;2023-04-22T19:51:29;3.40;;;3.20;;
2039;SDS011;1025;42.686;23.350;2023-04-22T19:54:58;3.57;;;3.30;;
2039;SDS011;1025;42.686;23.350;2023-04-22T19:58:25;4.10;;;3.70;;
2039;SDS011;1025;42.686;23.350;2023-04-22T20:01:55;4.07;;;2.97;;